Nireas — SX9654 — position and weather

sailwx.info

Track history (hours):
 
Tides and Currents Weather Stations Pressure Air Temp Water Temp Dewpoint Dewpoint Depression Visibility Wind Speed Wind Dir Waves Ship Positions

Nireas

Last reported at 2014-Mar-17 12:33 UTC. Time now 2014-Oct-30 16:07 UTC.
Position N 39°30' E 020°12'.
Warning: this ship's position is months out of date.

Length 61 m; draft 2.6 m.

Type: Passenger vessel. MMSI: 237470300.

Date/timePositionNaut miles runAvg speedWind from/ knotsBaromVisibWave heightAir tempDewpointWater temp
2014-Mar-17 12:33N 39°30' E 020°12'1010.4
2014-Mar-17 11:33N 39°36' E 019°60'5 2.2
2014-Mar-17 09:23N 39°38' E 019°55'810.2
2014-Mar-17 08:33N 39°34' E 020°04'10 8.0
2014-Mar-17 07:20N 39°30' E 020°16'4 4.6
2014-Mar-17 06:34N 39°30' E 020°11'1010.3
2014-Mar-17 05:34N 39°36' E 019°60'1 0.1
2014-Mar-16 19:33N 39°35' E 020°01'1010.3
2014-Mar-16 18:33N 39°30' E 020°12'2 2.3
2014-Mar-16 17:34N 39°30' E 020°15'1010.3
2014-Mar-16 16:34N 39°34' E 020°03'2 0.5
2014-Mar-16 13:33N 39°35' E 020°02'10 9.9
2014-Mar-16 12:34N 39°30' E 020°13'2 1.5
2014-Mar-16 11:34N 39°30' E 020°15'1010.3
2014-Mar-16 10:34N 39°34' E 020°03'11 0.5
2014-Mar-15 13:27N 39°30' E 020°16'3 3.4
2014-Mar-15 12:33N 39°30' E 020°12'1010.4
2014-Mar-15 11:33N 39°35' E 020°00'5 2.3
2014-Mar-15 09:33N 39°38' E 019°55'1010.1
2014-Mar-15 08:34N 39°32' E 020°06'8 7.8
2014-Mar-15 07:32N 39°30' E 020°16'4 3.7
2014-Mar-15 06:33N 39°30' E 020°11'1010.1
2014-Mar-15 05:34N 39°36' E 019°60'5 0.4
2014-Mar-14 16:32N 39°38' E 019°54'9 9.3
2014-Mar-14 15:33N 39°33' E 020°05'9 7.5
2014-Mar-14 14:19N 39°30' E 020°16'0 0.0
2014-Mar-14 13:30N 39°30' E 020°16'3 3.4
2014-Mar-14 12:33N 39°30' E 020°12'1010.3
2014-Mar-14 11:33N 39°35' E 020°00'5 3.4
2014-Mar-14 10:06N 39°38' E 019°54'0 0.0
2014-Mar-14 09:32N 39°38' E 019°54'10 9.2
2014-Mar-14 08:28N 39°33' E 020°05'9 9.4
2014-Mar-14 07:33N 39°30' E 020°16'4 3.7
2014-Mar-14 06:33N 39°30' E 020°11'1010.3
2014-Mar-14 05:33N 39°36' E 019°59'5 0.3
2014-Mar-13 16:28N 39°38' E 019°54'9 9.5
2014-Mar-13 15:33N 39°34' E 020°04'10 9.7
2014-Mar-13 14:33N 39°30' E 020°16'0 0.1
2014-Mar-13 13:29N 39°30' E 020°16'3 3.6
2014-Mar-13 12:33N 39°30' E 020°11'1010.3
2014-Mar-13 11:33N 39°35' E 019°60'5 4.0
2014-Mar-13 10:20N 39°38' E 019°54'0 0.0
2014-Mar-13 09:32N 39°38' E 019°54'9 8.9
2014-Mar-13 08:33N 39°34' E 020°04'10 8.4
2014-Mar-13 07:25N 39°30' E 020°16'4 4.7
2014-Mar-13 06:34N 39°30' E 020°11'1010.1
2014-Mar-13 05:33N 39°36' E 019°59'4 0.3
2014-Mar-12 16:33N 39°38' E 019°55'10 9.9
2014-Mar-12 15:33N 39°32' E 020°06'8 7.7
2014-Mar-12 14:32N 39°30' E 020°16'0 0.0
2014-Mar-12 13:30N 39°30' E 020°16'3 3.4
2014-Mar-12 12:33N 39°30' E 020°12'1010.3
2014-Mar-12 11:33N 39°35' E 019°60'5 2.4
2014-Mar-12 09:31N 39°38' E 019°54'9 9.0
2014-Mar-12 08:34N 39°34' E 020°04'10 8.8
2014-Mar-12 07:28N 39°30' E 020°16'18 1.6
2014-Mar-11 20:06N 39°38' E 019°54'610.2
2014-Mar-11 19:33N 39°35' E 020°01'1010.4
2014-Mar-11 18:33N 39°30' E 020°12'1 1.2
2014-Mar-11 17:33N 39°30' E 020°14'1010.0
2014-Mar-11 16:33N 39°34' E 020°02'7 2.9
2014-Mar-11 14:09N 39°38' E 019°54'6 9.4
2014-Mar-11 13:33N 39°35' E 020°01'1010.5
2014-Mar-11 12:33N 39°30' E 020°13'1 1.2
2014-Mar-11 11:33N 39°30' E 020°14'10 9.8
2014-Mar-11 10:33N 39°34' E 020°03'7 0.4
2014-Mar-10 16:27N 39°38' E 019°54'9 9.9
2014-Mar-10 15:34N 39°33' E 020°04'10 9.5
2014-Mar-10 14:33N 39°30' E 020°16'0 0.0
2014-Mar-10 13:32N 39°30' E 020°16'4 4.0
2014-Mar-10 12:33N 39°30' E 020°11'1010.3
2014-Mar-10 11:33N 39°36' E 019°59'4 1.8
2014-Mar-10 09:21N 39°38' E 019°55'810.3
2014-Mar-10 08:33N 39°34' E 020°04'10 9.3
2014-Mar-10 07:30N 39°30' E 020°16'4 4.4
2014-Mar-10 06:33N 39°31' E 020°10'10 9.8
2014-Mar-10 05:33N 39°36' E 019°59'4 4.2
2014-Mar-10 04:28N 39°38' E 019°54'1 0.1
2014-Mar-09 20:03N 39°38' E 019°55'510.3
2014-Mar-09 19:34N 39°35' E 020°01'1110.5
2014-Mar-09 18:33N 39°30' E 020°13'2 1.7
2014-Mar-09 17:33N 39°30' E 020°15'10 9.9
2014-Mar-09 16:33N 39°34' E 020°03'8 3.1
2014-Mar-09 14:06N 39°38' E 019°55'610.2
2014-Mar-09 13:33N 39°35' E 020°01'1010.4
2014-Mar-09 12:33N 39°30' E 020°13'1 1.2
2014-Mar-09 11:33N 39°30' E 020°14'10 9.7
2014-Mar-09 10:33N 39°34' E 020°03'2 0.2
2014-Mar-08 19:33N 39°35' E 020°00'1110.6
2014-Mar-08 18:33N 39°30' E 020°12'1 1.3
2014-Mar-08 17:33N 39°30' E 020°14'1010.0
2014-Mar-08 16:33N 39°34' E 020°02'7 3.3
2014-Mar-08 14:26N 39°38' E 019°54'6 6.9
2014-Mar-08 13:33N 39°35' E 020°01'1010.1
2014-Mar-08 12:33N 39°30' E 020°13'2 1.8
2014-Mar-08 11:33N 39°30' E 020°15'1010.4
2014-Mar-08 10:33N 39°34' E 020°03'7 0.4
2014-Mar-07 16:25N 39°38' E 019°54'8 9.6
2014-Mar-07 15:33N 39°34' E 020°04'1010.0
2014-Mar-07 14:33N 39°30' E 020°16'0 0.2
2014-Mar-07 13:33N 39°30' E 020°16'  
Track history (hours):
 
Tides and Currents Weather Stations Pressure Air Temp Water Temp Dewpoint Dewpoint Depression Visibility Wind Speed Wind Dir Waves Ship Positions

Nireas

Last reported at 2014-Mar-17 12:33 UTC. Time now 2014-Oct-30 16:07 UTC.
Position N 39°30' E 020°12'.
Warning: this ship's position is months out of date.

Length 61 m; draft 2.6 m.

Type: Passenger vessel. MMSI: 237470300.

Date/timePositionNaut miles runAvg speedWind from/ knotsBaromVisibWave heightAir tempDewpointWater temp
2014-Mar-17 12:33N 39°30' E 020°12'1010.4
2014-Mar-17 11:33N 39°36' E 019°60'5 2.2
2014-Mar-17 09:23N 39°38' E 019°55'810.2
2014-Mar-17 08:33N 39°34' E 020°04'10 8.0
2014-Mar-17 07:20N 39°30' E 020°16'4 4.6
2014-Mar-17 06:34N 39°30' E 020°11'1010.3
2014-Mar-17 05:34N 39°36' E 019°60'1 0.1
2014-Mar-16 19:33N 39°35' E 020°01'1010.3
2014-Mar-16 18:33N 39°30' E 020°12'2 2.3
2014-Mar-16 17:34N 39°30' E 020°15'1010.3
2014-Mar-16 16:34N 39°34' E 020°03'2 0.5
2014-Mar-16 13:33N 39°35' E 020°02'10 9.9
2014-Mar-16 12:34N 39°30' E 020°13'2 1.5
2014-Mar-16 11:34N 39°30' E 020°15'1010.3
2014-Mar-16 10:34N 39°34' E 020°03'11 0.5
2014-Mar-15 13:27N 39°30' E 020°16'3 3.4
2014-Mar-15 12:33N 39°30' E 020°12'1010.4
2014-Mar-15 11:33N 39°35' E 020°00'5 2.3
2014-Mar-15 09:33N 39°38' E 019°55'1010.1
2014-Mar-15 08:34N 39°32' E 020°06'8 7.8
2014-Mar-15 07:32N 39°30' E 020°16'4 3.7
2014-Mar-15 06:33N 39°30' E 020°11'1010.1
2014-Mar-15 05:34N 39°36' E 019°60'5 0.4
2014-Mar-14 16:32N 39°38' E 019°54'9 9.3
2014-Mar-14 15:33N 39°33' E 020°05'9 7.5
2014-Mar-14 14:19N 39°30' E 020°16'0 0.0
2014-Mar-14 13:30N 39°30' E 020°16'3 3.4
2014-Mar-14 12:33N 39°30' E 020°12'1010.3
2014-Mar-14 11:33N 39°35' E 020°00'5 3.4
2014-Mar-14 10:06N 39°38' E 019°54'0 0.0
2014-Mar-14 09:32N 39°38' E 019°54'10 9.2
2014-Mar-14 08:28N 39°33' E 020°05'9 9.4
2014-Mar-14 07:33N 39°30' E 020°16'4 3.7
2014-Mar-14 06:33N 39°30' E 020°11'1010.3
2014-Mar-14 05:33N 39°36' E 019°59'5 0.3
2014-Mar-13 16:28N 39°38' E 019°54'9 9.5
2014-Mar-13 15:33N 39°34' E 020°04'10 9.7
2014-Mar-13 14:33N 39°30' E 020°16'0 0.1
2014-Mar-13 13:29N 39°30' E 020°16'3 3.6
2014-Mar-13 12:33N 39°30' E 020°11'1010.3
2014-Mar-13 11:33N 39°35' E 019°60'5 4.0
2014-Mar-13 10:20N 39°38' E 019°54'0 0.0
2014-Mar-13 09:32N 39°38' E 019°54'9 8.9
2014-Mar-13 08:33N 39°34' E 020°04'10 8.4
2014-Mar-13 07:25N 39°30' E 020°16'4 4.7
2014-Mar-13 06:34N 39°30' E 020°11'1010.1
2014-Mar-13 05:33N 39°36' E 019°59'4 0.3
2014-Mar-12 16:33N 39°38' E 019°55'10 9.9
2014-Mar-12 15:33N 39°32' E 020°06'8 7.7
2014-Mar-12 14:32N 39°30' E 020°16'0 0.0
2014-Mar-12 13:30N 39°30' E 020°16'3 3.4
2014-Mar-12 12:33N 39°30' E 020°12'1010.3
2014-Mar-12 11:33N 39°35' E 019°60'5 2.4
2014-Mar-12 09:31N 39°38' E 019°54'9 9.0
2014-Mar-12 08:34N 39°34' E 020°04'10 8.8
2014-Mar-12 07:28N 39°30' E 020°16'18 1.6
2014-Mar-11 20:06N 39°38' E 019°54'610.2
2014-Mar-11 19:33N 39°35' E 020°01'1010.4
2014-Mar-11 18:33N 39°30' E 020°12'1 1.2
2014-Mar-11 17:33N 39°30' E 020°14'1010.0
2014-Mar-11 16:33N 39°34' E 020°02'7 2.9
2014-Mar-11 14:09N 39°38' E 019°54'6 9.4
2014-Mar-11 13:33N 39°35' E 020°01'1010.5
2014-Mar-11 12:33N 39°30' E 020°13'1 1.2
2014-Mar-11 11:33N 39°30' E 020°14'10 9.8
2014-Mar-11 10:33N 39°34' E 020°03'7 0.4
2014-Mar-10 16:27N 39°38' E 019°54'9 9.9
2014-Mar-10 15:34N 39°33' E 020°04'10 9.5
2014-Mar-10 14:33N 39°30' E 020°16'0 0.0
2014-Mar-10 13:32N 39°30' E 020°16'4 4.0
2014-Mar-10 12:33N 39°30' E 020°11'1010.3
2014-Mar-10 11:33N 39°36' E 019°59'4 1.8
2014-Mar-10 09:21N 39°38' E 019°55'810.3
2014-Mar-10 08:33N 39°34' E 020°04'10 9.3
2014-Mar-10 07:30N 39°30' E 020°16'4 4.4
2014-Mar-10 06:33N 39°31' E 020°10'10 9.8
2014-Mar-10 05:33N 39°36' E 019°59'4 4.2
2014-Mar-10 04:28N 39°38' E 019°54'1 0.1
2014-Mar-09 20:03N 39°38' E 019°55'510.3
2014-Mar-09 19:34N 39°35' E 020°01'1110.5
2014-Mar-09 18:33N 39°30' E 020°13'2 1.7
2014-Mar-09 17:33N 39°30' E 020°15'10 9.9
2014-Mar-09 16:33N 39°34' E 020°03'8 3.1
2014-Mar-09 14:06N 39°38' E 019°55'610.2
2014-Mar-09 13:33N 39°35' E 020°01'1010.4
2014-Mar-09 12:33N 39°30' E 020°13'1 1.2
2014-Mar-09 11:33N 39°30' E 020°14'10 9.7
2014-Mar-09 10:33N 39°34' E 020°03'2 0.2
2014-Mar-08 19:33N 39°35' E 020°00'1110.6
2014-Mar-08 18:33N 39°30' E 020°12'1 1.3
2014-Mar-08 17:33N 39°30' E 020°14'1010.0
2014-Mar-08 16:33N 39°34' E 020°02'7 3.3
2014-Mar-08 14:26N 39°38' E 019°54'6 6.9
2014-Mar-08 13:33N 39°35' E 020°01'1010.1
2014-Mar-08 12:33N 39°30' E 020°13'2 1.8
2014-Mar-08 11:33N 39°30' E 020°15'1010.4
2014-Mar-08 10:33N 39°34' E 020°03'7 0.4
2014-Mar-07 16:25N 39°38' E 019°54'8 9.6
2014-Mar-07 15:33N 39°34' E 020°04'1010.0
2014-Mar-07 14:33N 39°30' E 020°16'0 0.2
2014-Mar-07 13:33N 39°30' E 020°16'  

Dump ship's entire track history